createdAt,value
2018-05-16T00:01:16.434Z,15.40
2018-05-16T00:03:44.820Z,15.40
2018-05-16T00:06:14.125Z,15.20
2018-05-16T00:08:42.538Z,15.20
2018-05-16T00:11:10.273Z,15.20
2018-05-16T00:13:38.666Z,15.10
2018-05-16T00:16:07.721Z,15.10
2018-05-16T00:18:35.416Z,15.10
2018-05-16T00:21:03.238Z,15.10
2018-05-16T00:23:30.853Z,15.00
2018-05-16T00:25:59.237Z,14.90
2018-05-16T00:28:28.256Z,14.90
2018-05-16T00:30:56.714Z,14.80
2018-05-16T00:33:24.551Z,14.80
2018-05-16T00:35:53.077Z,14.80
2018-05-16T00:38:20.716Z,14.80
2018-05-16T00:40:49.054Z,14.70
2018-05-16T00:43:16.767Z,14.70
2018-05-16T00:45:44.525Z,14.70
2018-05-16T00:48:12.159Z,14.60
2018-05-16T00:50:40.143Z,14.60
2018-05-16T00:53:07.925Z,14.60
2018-05-16T00:55:36.606Z,14.60
2018-05-16T00:58:04.282Z,14.60
2018-05-16T01:00:31.992Z,14.50
2018-05-16T01:03:00.467Z,14.50
2018-05-16T01:05:28.085Z,14.50
2018-05-16T01:07:55.709Z,14.50
2018-05-16T01:10:23.328Z,14.50
2018-05-16T01:12:51.695Z,14.40
2018-05-16T01:15:19.314Z,14.40
2018-05-16T01:17:46.901Z,14.40
2018-05-16T01:20:14.478Z,14.30
2018-05-16T01:22:42.115Z,14.30
2018-05-16T01:25:10.497Z,14.30
2018-05-16T01:27:38.074Z,14.20
2018-05-16T01:30:06.247Z,14.20
2018-05-16T01:32:33.865Z,14.20
2018-05-16T01:35:01.805Z,14.20
2018-05-16T01:37:29.446Z,14.20
2018-05-16T01:39:57.132Z,14.10
2018-05-16T01:42:24.737Z,14.10
2018-05-16T01:44:53.213Z,14.10
2018-05-16T01:47:20.789Z,14.00
2018-05-16T01:49:49.154Z,14.00
2018-05-16T01:52:16.758Z,14.00
2018-05-16T01:54:44.384Z,13.90
2018-05-16T01:57:13.049Z,13.90
2018-05-16T01:59:40.670Z,13.90
2018-05-16T02:02:08.313Z,13.90
2018-05-16T02:04:36.193Z,13.90
2018-05-16T02:07:03.794Z,13.90
2018-05-16T02:09:31.370Z,13.80
2018-05-16T02:11:59.002Z,13.80
2018-05-16T02:14:26.598Z,13.80
2018-05-16T02:16:54.231Z,13.70
2018-05-16T02:19:21.817Z,13.70
2018-05-16T02:21:49.711Z,13.70
2018-05-16T02:24:18.641Z,13.60
2018-05-16T02:26:46.304Z,13.60
2018-05-16T02:29:13.935Z,13.60
2018-05-16T02:31:42.285Z,13.50
2018-05-16T02:34:09.910Z,13.50
2018-05-16T02:36:37.522Z,13.50
2018-05-16T02:39:05.938Z,13.50
2018-05-16T02:41:33.553Z,13.50
2018-05-16T02:44:01.174Z,13.40
2018-05-16T02:46:29.590Z,13.40
2018-05-16T02:48:57.215Z,13.40
2018-05-16T02:51:24.802Z,13.40
2018-05-16T02:53:53.177Z,13.40
2018-05-16T02:56:20.804Z,13.40
2018-05-16T02:58:49.188Z,13.40
2018-05-16T03:01:16.787Z,13.40
2018-05-16T03:03:44.514Z,13.40
2018-05-16T03:06:12.886Z,13.40
2018-05-16T03:08:40.514Z,13.30
2018-05-16T03:11:08.098Z,13.30
2018-05-16T03:13:35.716Z,13.30
2018-05-16T03:16:03.332Z,13.30
2018-05-16T03:18:31.043Z,13.30
2018-05-16T03:20:58.659Z,13.30
2018-05-16T03:23:26.234Z,13.30
2018-05-16T03:25:54.666Z,13.30
2018-05-16T03:28:22.331Z,13.30
2018-05-16T03:30:50.064Z,13.30
2018-05-16T03:33:17.784Z,13.30
2018-05-16T03:35:46.166Z,13.20
2018-05-16T03:38:13.762Z,13.20
2018-05-16T03:40:41.385Z,13.20
2018-05-16T03:43:08.987Z,13.20
2018-05-16T03:45:36.829Z,13.20
2018-05-16T03:48:04.444Z,13.20
2018-05-16T03:50:33.279Z,13.20
2018-05-16T03:53:00.866Z,13.20
2018-05-16T03:55:28.481Z,13.20
2018-05-16T04:01:09.713Z,13.10
2018-05-16T04:03:49.032Z,13.10
2018-05-16T04:06:16.649Z,13.10
2018-05-16T04:08:44.273Z,13.00
2018-05-16T04:11:13.600Z,13.10
2018-05-16T04:13:41.323Z,13.10
2018-05-16T04:16:08.897Z,13.10
2018-05-16T04:18:36.585Z,13.00
2018-05-16T04:21:04.198Z,13.00
2018-05-16T04:23:32.537Z,12.90
2018-05-16T04:26:00.234Z,12.90
2018-05-16T04:28:27.781Z,12.90
2018-05-16T04:30:56.137Z,12.80
2018-05-16T04:33:24.681Z,12.80
2018-05-16T04:35:52.265Z,12.90
2018-05-16T04:38:19.874Z,12.80
2018-05-16T04:40:47.454Z,12.80
2018-05-16T04:43:15.869Z,12.80
2018-05-16T04:45:43.468Z,12.80
2018-05-16T04:48:11.169Z,12.80
2018-05-16T04:50:38.818Z,12.80
2018-05-16T04:53:06.399Z,12.90
2018-05-16T04:55:34.765Z,12.80
2018-05-16T04:58:02.389Z,12.80
2018-05-16T05:00:30.053Z,12.80
2018-05-16T05:02:57.729Z,12.80
2018-05-16T05:05:25.357Z,12.70
2018-05-16T05:07:53.053Z,12.70
2018-05-16T05:10:20.641Z,12.70
2018-05-16T05:12:48.769Z,12.80
2018-05-16T05:15:16.387Z,12.60
2018-05-16T05:17:44.783Z,12.80
2018-05-16T05:20:12.434Z,12.80
2018-05-16T05:22:40.053Z,12.80
2018-05-16T05:25:07.662Z,12.80
2018-05-16T05:27:36.069Z,12.80
2018-05-16T05:30:04.197Z,12.80
2018-05-16T05:32:32.793Z,12.80
2018-05-16T05:35:00.416Z,12.90
2018-05-16T05:37:28.025Z,12.90
2018-05-16T05:39:55.646Z,12.90
2018-05-16T05:42:24.125Z,12.90
2018-05-16T05:44:51.749Z,12.80
2018-05-16T05:47:19.388Z,12.80
2018-05-16T05:49:47.028Z,12.90
2018-05-16T05:52:14.636Z,12.90
2018-05-16T05:54:42.802Z,13.00
2018-05-16T05:57:10.437Z,13.10
2018-05-16T05:59:38.975Z,13.10
2018-05-16T06:02:07.731Z,13.20
2018-05-16T06:04:35.449Z,13.20
2018-05-16T06:07:03.086Z,13.20
2018-05-16T06:09:30.756Z,13.20
2018-05-16T06:12:00.353Z,13.20
2018-05-16T06:14:28.507Z,13.20
2018-05-16T06:16:56.134Z,13.30
2018-05-16T06:19:23.774Z,13.40
2018-05-16T06:21:52.134Z,13.50
2018-05-16T06:24:19.891Z,13.40
2018-05-16T06:26:47.479Z,13.40
2018-05-16T06:29:15.147Z,13.40
2018-05-16T06:31:42.781Z,13.30
2018-05-16T06:34:10.503Z,13.30
2018-05-16T06:36:38.121Z,13.30
2018-05-16T06:39:05.887Z,13.30
2018-05-16T06:41:33.477Z,13.40
2018-05-16T06:44:01.102Z,13.50
2018-05-16T06:46:28.742Z,13.50
2018-05-16T06:48:56.384Z,13.60
2018-05-16T06:51:23.970Z,13.60
2018-05-16T06:53:52.495Z,13.60
2018-05-16T06:56:20.150Z,13.60
2018-05-16T06:58:49.134Z,13.70
2018-05-16T07:01:16.761Z,13.70
2018-05-16T07:03:44.934Z,13.90
2018-05-16T07:06:14.365Z,14.00
2018-05-16T07:08:42.160Z,14.00
2018-05-16T07:11:10.842Z,14.10
2018-05-16T07:13:38.618Z,14.10
2018-05-16T07:16:06.294Z,14.30
2018-05-16T07:18:34.057Z,14.20
2018-05-16T07:21:02.159Z,14.30
2018-05-16T07:23:30.067Z,14.30
2018-05-16T07:25:59.924Z,14.40
2018-05-16T07:28:27.598Z,14.20
2018-05-16T07:30:56.015Z,14.40
2018-05-16T07:33:23.694Z,14.40
2018-05-16T07:35:51.357Z,14.50
2018-05-16T07:38:18.955Z,14.50
2018-05-16T07:40:46.565Z,14.60
2018-05-16T07:43:14.257Z,14.70
2018-05-16T07:45:42.432Z,14.70
2018-05-16T07:48:10.021Z,14.80
2018-05-16T07:50:37.650Z,14.90
2018-05-16T07:53:05.259Z,14.90
2018-05-16T07:55:32.872Z,14.90
2018-05-16T07:58:00.493Z,14.90
2018-05-16T08:00:28.138Z,14.90
2018-05-16T08:02:55.725Z,14.80
2018-05-16T08:05:24.105Z,14.70
2018-05-16T08:07:52.550Z,14.70
2018-05-16T08:10:20.126Z,14.80
2018-05-16T08:12:47.765Z,14.80
2018-05-16T08:15:15.386Z,14.90
2018-05-16T08:17:43.741Z,15.00
2018-05-16T08:20:11.320Z,15.00
2018-05-16T08:22:38.957Z,15.00
2018-05-16T08:25:06.557Z,15.00
2018-05-16T08:27:34.946Z,14.80
2018-05-16T08:30:03.337Z,14.80
2018-05-16T08:32:30.925Z,14.80
2018-05-16T08:34:58.536Z,14.80
2018-05-16T08:37:26.940Z,14.80
2018-05-16T08:39:54.547Z,14.80
2018-05-16T08:42:22.164Z,14.80
2018-05-16T08:44:49.754Z,14.70
2018-05-16T08:47:17.406Z,14.80
2018-05-16T08:49:45.025Z,14.80
2018-05-16T08:52:12.687Z,14.70
2018-05-16T08:54:40.265Z,14.60
2018-05-16T08:57:07.865Z,14.60
2018-05-16T08:59:35.489Z,14.50
2018-05-16T09:02:03.858Z,14.50
2018-05-16T09:04:31.474Z,14.50
2018-05-16T09:06:59.081Z,14.50
2018-05-16T09:09:26.678Z,14.60
2018-05-16T09:11:55.078Z,14.70
2018-05-16T09:14:22.670Z,14.70
2018-05-16T09:16:50.289Z,14.60
2018-05-16T09:19:17.876Z,14.80
2018-05-16T09:21:45.480Z,14.90
2018-05-16T09:24:13.074Z,14.90
2018-05-16T09:26:40.716Z,15.00
2018-05-16T09:29:08.309Z,15.10
2018-05-16T09:31:36.671Z,15.40
2018-05-16T09:34:04.292Z,15.40
2018-05-16T09:36:31.909Z,15.40
2018-05-16T09:39:00.286Z,15.40
2018-05-16T09:41:27.910Z,15.40
2018-05-16T09:43:55.519Z,15.40
2018-05-16T09:46:23.940Z,15.60
2018-05-16T09:48:51.545Z,15.60
2018-05-16T09:51:19.220Z,15.60
2018-05-16T09:53:46.842Z,15.60
2018-05-16T09:56:14.451Z,15.50
2018-05-16T09:58:42.800Z,15.70
2018-05-16T10:01:10.643Z,15.70
2018-05-16T10:03:38.224Z,15.70
2018-05-16T10:06:05.836Z,15.70
2018-05-16T10:08:33.536Z,15.90
2018-05-16T10:11:01.159Z,16.00
2018-05-16T10:13:29.549Z,16.10
2018-05-16T10:15:57.149Z,16.00
2018-05-16T10:18:24.759Z,16.20
2018-05-16T10:20:53.165Z,16.30
2018-05-16T10:23:20.826Z,16.20
2018-05-16T10:25:48.424Z,16.40
2018-05-16T10:28:16.026Z,16.50
2018-05-16T10:30:43.621Z,16.70
2018-05-16T10:33:11.229Z,16.70
2018-05-16T10:35:39.561Z,16.80
2018-05-16T10:38:07.914Z,16.60
2018-05-16T10:40:35.490Z,16.60
2018-05-16T10:43:03.908Z,16.70
2018-05-16T10:45:31.582Z,16.70
2018-05-16T10:47:59.186Z,16.90
2018-05-16T10:50:26.865Z,16.90
2018-05-16T10:52:54.374Z,16.80
2018-05-16T10:55:21.999Z,16.70
2018-05-16T10:57:49.609Z,16.50
2018-05-16T11:00:17.683Z,16.40
2018-05-16T11:02:45.266Z,16.40
2018-05-16T11:05:12.878Z,16.40
2018-05-16T11:07:40.459Z,16.50
2018-05-16T11:10:08.103Z,16.70
2018-05-16T11:12:35.726Z,16.90
2018-05-16T11:15:04.095Z,16.90
2018-05-16T11:17:31.733Z,16.90
2018-05-16T11:19:59.330Z,16.90
2018-05-16T11:22:26.936Z,16.90
2018-05-16T11:24:54.529Z,16.90
2018-05-16T11:27:22.107Z,16.80
2018-05-16T11:29:49.745Z,16.70
2018-05-16T11:32:17.414Z,16.80
2018-05-16T11:34:49.973Z,17.00
2018-05-16T11:37:17.569Z,17.00
2018-05-16T11:39:45.144Z,16.90
2018-05-16T11:42:12.784Z,16.80
2018-05-16T11:44:40.397Z,16.80
2018-05-16T11:47:08.774Z,17.00
2018-05-16T11:49:36.393Z,17.00
2018-05-16T11:52:04.225Z,17.10
2018-05-16T11:54:31.814Z,17.00
2018-05-16T11:56:59.414Z,17.00
2018-05-16T11:59:27.030Z,17.00
2018-05-16T12:01:54.635Z,17.10
2018-05-16T12:04:22.213Z,17.20
2018-05-16T12:06:49.826Z,17.30
2018-05-16T12:09:17.555Z,17.40
2018-05-16T12:11:45.067Z,17.40
2018-05-16T12:14:12.645Z,17.50
2018-05-16T12:16:40.316Z,17.70
2018-05-16T12:19:07.919Z,17.90
2018-05-16T12:21:36.291Z,18.10
2018-05-16T12:24:04.651Z,18.10
2018-05-16T12:26:32.262Z,18.10
2018-05-16T12:28:59.928Z,18.10
2018-05-16T12:31:27.424Z,18.10
2018-05-16T12:33:55.024Z,18.00
2018-05-16T12:36:23.372Z,17.80
2018-05-16T12:38:51.131Z,17.80
2018-05-16T12:41:18.794Z,17.80
2018-05-16T12:43:47.170Z,18.10
2018-05-16T12:46:14.793Z,18.00
2018-05-16T12:48:43.164Z,18.40
2018-05-16T12:51:11.513Z,18.40
2018-05-16T12:53:39.102Z,18.30
2018-05-16T12:56:06.665Z,18.30
2018-05-16T12:58:34.260Z,18.20
2018-05-16T13:01:01.840Z,17.90
2018-05-16T13:03:29.947Z,17.70
2018-05-16T13:05:57.531Z,17.50
2018-05-16T13:08:25.179Z,17.60
2018-05-16T13:10:52.778Z,17.80
2018-05-16T13:13:20.394Z,17.80
2018-05-16T13:15:47.974Z,17.90
2018-05-16T13:18:15.561Z,17.80
2018-05-16T13:20:43.175Z,17.70
2018-05-16T13:23:10.938Z,17.70
2018-05-16T13:25:38.555Z,17.80
2018-05-16T13:28:06.160Z,17.70
2018-05-16T13:30:34.826Z,17.60
2018-05-16T13:33:02.453Z,17.70
2018-05-16T13:35:30.059Z,17.70
2018-05-16T13:37:57.638Z,17.50
2018-05-16T13:40:25.390Z,17.40
2018-05-16T13:42:52.997Z,17.30
2018-05-16T13:45:20.617Z,17.20
2018-05-16T13:47:48.192Z,17.00
2018-05-16T13:50:15.782Z,17.00
2018-05-16T13:52:43.346Z,17.00
2018-05-16T13:55:11.088Z,16.90
2018-05-16T13:57:39.921Z,16.90
2018-05-16T14:00:07.595Z,17.00
2018-05-16T14:02:35.721Z,17.00
2018-05-16T14:05:03.468Z,16.90
2018-05-16T14:07:31.097Z,17.00
2018-05-16T14:09:59.499Z,17.00
2018-05-16T14:12:27.532Z,16.90
2018-05-16T14:14:55.805Z,17.10
2018-05-16T14:17:23.417Z,17.10
2018-05-16T14:19:51.069Z,17.00
2018-05-16T14:22:18.691Z,17.10
2018-05-16T14:24:46.382Z,17.10
2018-05-16T14:27:14.093Z,17.10
2018-05-16T14:29:41.703Z,17.20
2018-05-16T14:32:09.374Z,17.10
2018-05-16T14:34:37.107Z,17.10
2018-05-16T14:37:04.935Z,17.00
2018-05-16T14:39:32.553Z,17.00
2018-05-16T14:42:00.977Z,17.00
2018-05-16T14:44:28.596Z,17.00
2018-05-16T14:46:56.228Z,17.00
2018-05-16T14:49:24.543Z,17.00
2018-05-16T14:51:52.198Z,16.90
2018-05-16T14:54:19.794Z,16.80
2018-05-16T14:56:48.180Z,16.80
2018-05-16T14:59:15.811Z,16.70
2018-05-16T15:01:43.429Z,16.80
2018-05-16T15:04:11.028Z,16.90
2018-05-16T15:06:38.625Z,16.70
2018-05-16T15:09:07.027Z,16.60
2018-05-16T15:11:36.186Z,16.60
2018-05-16T15:14:03.814Z,16.60
2018-05-16T15:16:31.397Z,16.70
2018-05-16T15:18:59.006Z,16.60
2018-05-16T15:21:26.666Z,16.60
2018-05-16T15:23:55.080Z,16.70
2018-05-16T15:26:22.843Z,16.60
2018-05-16T15:28:50.565Z,16.60
2018-05-16T15:31:18.179Z,16.50
2018-05-16T15:33:45.870Z,16.40
2018-05-16T15:36:13.479Z,16.50
2018-05-16T15:38:41.082Z,16.70
2018-05-16T15:41:08.709Z,16.70
2018-05-16T15:43:37.105Z,16.80
2018-05-16T15:46:06.485Z,16.80
2018-05-16T15:48:35.867Z,16.70
2018-05-16T15:51:03.493Z,16.60
2018-05-16T15:53:31.106Z,16.60
2018-05-16T15:55:58.767Z,16.70
2018-05-16T15:58:27.125Z,16.60
2018-05-16T16:00:54.783Z,16.60
2018-05-16T16:03:22.380Z,16.60
2018-05-16T16:05:50.036Z,16.70
2018-05-16T16:08:17.613Z,16.90
2018-05-16T16:10:45.719Z,16.90
2018-05-16T16:13:14.103Z,16.80
2018-05-16T16:15:41.673Z,16.80
2018-05-16T16:18:09.313Z,16.90
2018-05-16T16:20:37.685Z,17.20
2018-05-16T16:23:05.313Z,17.10
2018-05-16T16:25:32.947Z,17.30
2018-05-16T16:28:01.318Z,17.30
2018-05-16T16:30:29.717Z,17.30
2018-05-16T16:32:57.304Z,17.30
2018-05-16T16:35:25.064Z,17.20
2018-05-16T16:37:52.649Z,17.10
2018-05-16T16:40:20.238Z,17.10
2018-05-16T16:42:48.621Z,17.30
2018-05-16T16:45:17.078Z,17.50
2018-05-16T16:47:44.734Z,17.50
2018-05-16T16:50:13.222Z,17.60
2018-05-16T16:52:40.870Z,17.60
2018-05-16T16:55:08.510Z,17.50
2018-05-16T16:57:36.203Z,17.50
2018-05-16T17:00:03.883Z,17.50
2018-05-16T17:02:31.493Z,17.50
2018-05-16T17:04:59.162Z,17.50
2018-05-16T17:07:26.833Z,17.60
2018-05-16T17:09:54.486Z,17.60
2018-05-16T17:12:22.106Z,17.60
2018-05-16T17:14:49.785Z,17.50
2018-05-16T17:17:17.385Z,17.40
2018-05-16T17:19:45.181Z,17.50
2018-05-16T17:22:12.790Z,17.30
2018-05-16T17:24:41.170Z,16.90
2018-05-16T17:27:08.810Z,16.90
2018-05-16T17:29:37.190Z,16.80
2018-05-16T17:32:04.822Z,16.70
2018-05-16T17:34:32.429Z,16.80
2018-05-16T17:37:00.629Z,16.70
2018-05-16T17:39:28.267Z,16.80
2018-05-16T17:41:55.862Z,16.80
2018-05-16T17:44:24.233Z,16.80
2018-05-16T17:46:52.907Z,16.80
2018-05-16T17:49:20.978Z,16.80
2018-05-16T17:51:48.623Z,16.70
2018-05-16T17:54:16.210Z,16.70
2018-05-16T17:56:44.732Z,16.90
2018-05-16T17:59:12.291Z,16.90
2018-05-16T18:01:40.033Z,17.00
2018-05-16T18:04:08.513Z,17.10
2018-05-16T18:06:36.199Z,17.10
2018-05-16T18:09:03.798Z,17.10
2018-05-16T18:11:31.406Z,17.00
2018-05-16T18:14:10.875Z,17.00
2018-05-16T18:16:51.173Z,17.00
2018-05-16T18:19:18.879Z,17.00
2018-05-16T18:21:47.744Z,16.90
2018-05-16T18:24:16.253Z,16.90
2018-05-16T18:26:43.861Z,16.90
2018-05-16T18:29:11.448Z,16.90
2018-05-16T18:31:39.076Z,16.80
2018-05-16T18:34:06.677Z,16.70
2018-05-16T18:36:34.286Z,16.70
2018-05-16T18:39:01.973Z,16.80
2018-05-16T18:41:29.718Z,17.00
2018-05-16T18:43:58.087Z,17.40
2018-05-16T18:46:26.395Z,17.40
2018-05-16T18:48:55.414Z,18.10
2018-05-16T18:51:23.033Z,18.00
2018-05-16T18:53:50.653Z,18.40
2018-05-16T18:56:18.237Z,18.40
2018-05-16T18:58:47.474Z,18.00
2018-05-16T19:01:15.825Z,17.50
2018-05-16T19:03:43.460Z,17.40
2018-05-16T19:06:11.056Z,16.90
2018-05-16T19:08:38.723Z,16.40
2018-05-16T19:11:07.109Z,15.90
2018-05-16T19:13:34.849Z,15.90
2018-05-16T19:16:02.479Z,15.80
2018-05-16T19:18:30.217Z,15.70
2018-05-16T19:20:57.980Z,15.80
2018-05-16T19:23:26.347Z,16.00
2018-05-16T19:25:54.083Z,16.00
2018-05-16T19:28:22.471Z,15.80
2018-05-16T19:30:50.162Z,15.80
2018-05-16T19:33:17.833Z,15.50
2018-05-16T19:35:46.182Z,15.00
2018-05-16T19:38:15.202Z,15.10
2018-05-16T19:40:42.904Z,14.80
2018-05-16T19:43:11.271Z,14.60
2018-05-16T19:45:39.949Z,14.40
2018-05-16T19:48:08.331Z,14.30
2018-05-16T19:50:36.789Z,14.20
2018-05-16T19:53:04.452Z,14.10
2018-05-16T19:55:32.608Z,14.00
2018-05-16T19:58:00.562Z,13.90
2018-05-16T20:00:28.253Z,13.80
2018-05-16T20:02:56.962Z,13.70
2018-05-16T20:05:24.594Z,13.60
2018-05-16T20:07:52.169Z,13.50
2018-05-16T20:10:19.776Z,13.40
2018-05-16T20:12:48.179Z,13.20
2018-05-16T20:15:15.910Z,13.20
2018-05-16T20:17:43.605Z,13.20
2018-05-16T20:20:11.198Z,13.10
2018-05-16T20:22:39.932Z,13.00
2018-05-16T20:25:07.715Z,13.00
2018-05-16T20:27:35.361Z,13.00
2018-05-16T20:30:03.044Z,12.90
2018-05-16T20:32:30.627Z,12.90
2018-05-16T20:34:58.323Z,12.80
2018-05-16T20:37:25.971Z,12.70
2018-05-16T20:39:54.045Z,12.70
2018-05-16T20:42:22.390Z,12.70
2018-05-16T20:44:53.258Z,12.60
2018-05-16T20:47:21.074Z,12.60
2018-05-16T20:49:48.853Z,12.60
2018-05-16T20:52:18.129Z,12.50
2018-05-16T20:54:47.020Z,12.50
2018-05-16T20:57:14.776Z,12.40
2018-05-16T20:59:42.426Z,12.40
2018-05-16T21:02:10.072Z,12.30
2018-05-16T21:04:37.798Z,12.30
2018-05-16T21:07:06.183Z,12.20
2018-05-16T21:09:33.864Z,12.20
2018-05-16T21:12:01.865Z,12.20
2018-05-16T21:14:29.641Z,12.10
2018-05-16T21:16:57.383Z,12.10
2018-05-16T21:19:25.902Z,11.90
2018-05-16T21:21:53.622Z,12.00
2018-05-16T21:24:22.225Z,11.90
2018-05-16T21:26:50.971Z,11.80
2018-05-16T21:29:19.737Z,11.80
2018-05-16T21:31:47.372Z,11.80
2018-05-16T21:34:14.991Z,11.70
2018-05-16T21:36:42.617Z,11.70
2018-05-16T21:39:10.397Z,11.60
2018-05-16T21:41:38.191Z,11.60
2018-05-16T21:44:05.841Z,11.50
2018-05-16T21:46:33.748Z,11.50
2018-05-16T21:49:02.205Z,11.40
2018-05-16T21:51:31.045Z,11.40
2018-05-16T21:53:58.781Z,11.30
2018-05-16T21:56:26.709Z,11.30
2018-05-16T21:58:54.402Z,11.30
2018-05-16T22:01:22.094Z,11.20
2018-05-16T22:03:49.713Z,11.20
2018-05-16T22:06:17.377Z,11.20
2018-05-16T22:08:45.218Z,11.10
2018-05-16T22:11:13.618Z,11.10
2018-05-16T22:13:43.213Z,11.10
2018-05-16T22:16:11.609Z,11.10
2018-05-16T22:18:39.253Z,11.00
2018-05-16T22:21:07.739Z,11.00
2018-05-16T22:23:37.296Z,11.00
2018-05-16T22:26:04.980Z,11.00
2018-05-16T22:28:33.065Z,11.00
2018-05-16T22:31:06.538Z,10.90
2018-05-16T22:33:40.042Z,10.90
2018-05-16T22:36:14.659Z,10.80
2018-05-16T22:38:47.984Z,10.80
2018-05-16T22:41:21.386Z,10.70
2018-05-16T22:43:55.475Z,10.70
2018-05-16T22:46:24.258Z,10.70
2018-05-16T22:48:51.973Z,10.70
2018-05-16T22:51:19.590Z,10.60
2018-05-16T22:53:48.436Z,10.60
2018-05-16T22:56:16.216Z,10.60
2018-05-16T22:58:44.825Z,10.60
2018-05-16T23:01:12.451Z,10.60
2018-05-16T23:03:40.190Z,10.50
2018-05-16T23:06:07.841Z,10.50
2018-05-16T23:08:35.612Z,10.50
2018-05-16T23:11:03.362Z,10.50
2018-05-16T23:13:31.025Z,10.50
2018-05-16T23:15:58.738Z,10.50
2018-05-16T23:18:26.310Z,10.60
2018-05-16T23:20:53.950Z,10.60
2018-05-16T23:23:21.652Z,10.60
2018-05-16T23:25:49.264Z,10.50
2018-05-16T23:28:16.925Z,10.60
2018-05-16T23:30:46.082Z,10.50
2018-05-16T23:33:13.626Z,10.50
2018-05-16T23:35:42.181Z,10.50
2018-05-16T23:38:09.807Z,10.40
2018-05-16T23:40:38.042Z,10.40
2018-05-16T23:43:05.699Z,10.40
2018-05-16T23:45:33.454Z,10.40
2018-05-16T23:48:01.215Z,10.30
2018-05-16T23:50:28.839Z,10.30
2018-05-16T23:52:56.476Z,10.30
2018-05-16T23:55:25.265Z,10.30
2018-05-16T23:57:52.905Z,10.30
